Easton, New Hampshire
Current Conditions -  °F | °C
As of 2:15 AM on Saturday 20 Dec 2014 (Local Time) from K1P1 Reporting Station
Clear Clear  
Wind Chill: 13°   Ceiling: Unl
Heat Index: 22°   Visibility: 10mi
Dew Point: 20°   Wind: 8mph
Humidity: 91%   Direction: 280°W
Pressure: 30.21"   Gusts: 16mph
Location:  44.1173°N, 71.8999°W
Report Text: K1P1 200715Z AUTO 28007G14KT 10SM CLR M05/M07 A3021 RMK AO2 T10551067
Loading
Personal Weather Stations






























Interactive Weather Map New forecast layout! Learn more

10-Day Weather Forecast

Advertisements
Track Severe Weather on mobile